createdAt,value
2019-04-07T00:02:28.037Z,100.00
2019-04-07T00:05:35.594Z,100.00
2019-04-07T00:08:43.541Z,100.00
2019-04-07T00:11:50.783Z,100.00
2019-04-07T00:14:58.178Z,100.00
2019-04-07T00:18:05.615Z,100.00
2019-04-07T00:21:13.586Z,100.00
2019-04-07T00:24:20.862Z,100.00
2019-04-07T00:27:28.091Z,100.00
2019-04-07T00:30:35.394Z,100.00
2019-04-07T00:33:42.726Z,100.00
2019-04-07T00:36:50.593Z,100.00
2019-04-07T00:39:57.806Z,100.00
2019-04-07T00:43:05.626Z,100.00
2019-04-07T00:46:13.606Z,100.00
2019-04-07T00:49:20.736Z,100.00
2019-04-07T00:52:28.383Z,100.00
2019-04-07T00:55:45.111Z,100.00
2019-04-07T00:59:02.672Z,100.00
2019-04-07T01:02:10.697Z,100.00
2019-04-07T01:05:35.303Z,100.00
2019-04-07T01:08:36.303Z,100.00
2019-04-07T01:11:44.261Z,100.00
2019-04-07T01:14:51.338Z,100.00
2019-04-07T01:17:58.811Z,100.00
2019-04-07T01:21:06.397Z,100.00
2019-04-07T01:24:14.432Z,100.00
2019-04-07T01:27:21.723Z,100.00
2019-04-07T01:30:28.933Z,100.00
2019-04-07T01:33:36.710Z,100.00
2019-04-07T01:36:44.540Z,100.00
2019-04-07T01:40:01.531Z,100.00
2019-04-07T01:43:28.087Z,100.00
2019-04-07T01:46:48.018Z,100.00
2019-04-07T01:50:26.445Z,100.00
2019-04-07T01:53:50.973Z,100.00
2019-04-07T01:57:27.310Z,100.00
2019-04-07T02:00:56.650Z,100.00
2019-04-07T02:04:17.171Z,100.00
2019-04-07T02:07:40.685Z,100.00
2019-04-07T02:11:18.708Z,100.00
2019-04-07T02:14:32.217Z,100.00
2019-04-07T02:17:58.203Z,100.00
2019-04-07T02:21:33.902Z,100.00
2019-04-07T02:25:10.746Z,100.00
2019-04-07T02:28:35.734Z,100.00
2019-04-07T02:32:01.443Z,100.00
2019-04-07T02:35:32.630Z,100.00
2019-04-07T02:38:58.279Z,100.00
2019-04-07T02:42:30.586Z,100.00
2019-04-07T02:45:46.867Z,100.00
2019-04-07T02:49:04.061Z,100.00
2019-04-07T02:52:33.536Z,100.00
2019-04-07T02:55:48.886Z,100.00
2019-04-07T02:59:04.776Z,100.00
2019-04-07T03:02:51.902Z,100.00
2019-04-07T03:06:53.002Z,100.00
2019-04-07T03:10:09.131Z,100.00
2019-04-07T03:13:26.240Z,100.00
2019-04-07T03:17:02.309Z,100.00
2019-04-07T03:20:33.857Z,100.00
2019-04-07T03:23:51.608Z,100.00
2019-04-07T03:27:10.208Z,100.00
2019-04-07T03:30:25.691Z,100.00
2019-04-07T03:33:56.675Z,100.00
2019-04-07T03:37:44.155Z,100.00
2019-04-07T03:41:09.785Z,100.00
2019-04-07T03:44:29.194Z,100.00
2019-04-07T03:47:43.765Z,100.00
2019-04-07T03:51:11.711Z,100.00
2019-04-07T03:54:28.368Z,100.00
2019-04-07T03:57:53.450Z,100.00
2019-04-07T04:01:22.236Z,100.00
2019-04-07T04:05:12.429Z,100.00
2019-04-07T04:08:52.903Z,100.00
2019-04-07T04:12:37.434Z,100.00
2019-04-07T04:16:12.906Z,100.00
2019-04-07T04:19:20.853Z,100.00
2019-04-07T04:22:29.147Z,100.00
2019-04-07T04:25:37.484Z,100.00
2019-04-07T04:28:45.184Z,100.00
2019-04-07T04:31:52.844Z,100.00
2019-04-07T04:35:10.775Z,100.00
2019-04-07T04:38:18.247Z,100.00
2019-04-07T04:41:25.536Z,100.00
2019-04-07T04:44:32.881Z,100.00
2019-04-07T04:47:40.716Z,100.00
2019-04-07T04:50:49.070Z,100.00
2019-04-07T04:54:05.748Z,100.00
2019-04-07T04:57:23.153Z,100.00
2019-04-07T05:00:30.357Z,100.00
2019-04-07T05:03:38.320Z,100.00
2019-04-07T05:06:46.482Z,100.00
2019-04-07T05:09:55.656Z,100.00
2019-04-07T05:13:02.768Z,100.00
2019-04-07T05:16:10.613Z,100.00
2019-04-07T05:19:27.359Z,100.00
2019-04-07T05:22:33.553Z,100.00
2019-04-07T05:25:40.797Z,100.00
2019-04-07T05:28:48.357Z,100.00
2019-04-07T05:31:55.791Z,100.00
2019-04-07T05:35:03.200Z,100.00
2019-04-07T05:38:11.266Z,100.00
2019-04-07T05:41:18.585Z,100.00
2019-04-07T05:44:25.830Z,100.00
2019-04-07T05:47:33.107Z,100.00
2019-04-07T05:50:38.723Z,100.00
2019-04-07T05:53:47.453Z,100.00
2019-04-07T05:56:58.620Z,100.00
2019-04-07T06:00:04.699Z,100.00
2019-04-07T06:03:12.179Z,100.00
2019-04-07T06:06:20.858Z,100.00
2019-04-07T06:09:28.308Z,100.00
2019-04-07T06:12:39.343Z,100.00
2019-04-07T06:15:44.553Z,100.00
2019-04-07T06:18:52.344Z,100.00
2019-04-07T06:22:09.066Z,100.00
2019-04-07T06:25:16.659Z,100.00
2019-04-07T06:28:23.961Z,100.00
2019-04-07T06:31:32.158Z,100.00
2019-04-07T06:34:43.135Z,100.00
2019-04-07T06:37:49.255Z,100.00
2019-04-07T06:41:00.099Z,100.00
2019-04-07T06:44:11.269Z,100.00
2019-04-07T06:47:21.617Z,100.00
2019-04-07T06:50:59.343Z,100.00
2019-04-07T06:54:36.152Z,100.00
2019-04-07T06:58:16.403Z,100.00
2019-04-07T07:02:06.483Z,100.00
2019-04-07T07:05:28.956Z,100.00
2019-04-07T07:09:04.543Z,100.00
2019-04-07T07:12:33.560Z,100.00
2019-04-07T07:16:07.973Z,100.00
2019-04-07T07:20:06.901Z,100.00
2019-04-07T07:23:36.576Z,100.00
2019-04-07T07:26:44.143Z,100.00
2019-04-07T07:29:53.577Z,100.00
2019-04-07T07:33:00.699Z,100.00
2019-04-07T07:36:20.618Z,100.00
2019-04-07T07:39:36.187Z,100.00
2019-04-07T07:42:56.158Z,100.00
2019-04-07T07:46:01.972Z,100.00
2019-04-07T07:49:09.342Z,100.00
2019-04-07T07:52:20.434Z,100.00
2019-04-07T07:55:26.386Z,100.00
2019-04-07T07:58:43.920Z,100.00
2019-04-07T08:01:52.252Z,100.00
2019-04-07T08:04:59.738Z,100.00
2019-04-07T08:08:07.066Z,100.00
2019-04-07T08:11:16.461Z,100.00
2019-04-07T08:14:23.428Z,100.00
2019-04-07T08:17:33.158Z,100.00
2019-04-07T08:20:42.931Z,100.00
2019-04-07T08:23:49.160Z,100.00
2019-04-07T08:26:58.847Z,100.00
2019-04-07T08:30:09.905Z,100.00
2019-04-07T08:33:14.788Z,100.00
2019-04-07T08:36:22.711Z,100.00
2019-04-07T08:39:32.318Z,100.00
2019-04-07T08:42:38.079Z,100.00
2019-04-07T08:45:46.039Z,100.00
2019-04-07T08:49:01.708Z,100.00
2019-04-07T08:52:12.066Z,100.00
2019-04-07T08:55:20.029Z,100.00
2019-04-07T08:58:28.985Z,100.00
2019-04-07T09:01:36.142Z,100.00
2019-04-07T09:04:52.687Z,100.00
2019-04-07T09:08:09.459Z,100.00
2019-04-07T09:11:22.176Z,100.00
2019-04-07T09:14:27.269Z,100.00
2019-04-07T09:17:53.259Z,100.00
2019-04-07T09:21:40.015Z,100.00
2019-04-07T09:24:53.694Z,100.00
2019-04-07T09:28:13.364Z,100.00
2019-04-07T09:31:38.239Z,100.00
2019-04-07T09:35:05.667Z,100.00
2019-04-07T09:38:31.678Z,100.00
2019-04-07T09:42:00.949Z,100.00
2019-04-07T09:45:34.499Z,100.00
2019-04-07T09:49:16.876Z,100.00
2019-04-07T09:52:58.389Z,100.00
2019-04-07T09:56:33.736Z,100.00
2019-04-07T09:59:59.436Z,100.00
2019-04-07T10:03:37.688Z,100.00
2019-04-07T10:07:09.233Z,100.00
2019-04-07T10:10:49.439Z,100.00
2019-04-07T10:14:23.766Z,100.00
2019-04-07T10:18:02.096Z,95.46
2019-04-07T10:21:19.605Z,100.00
2019-04-07T10:24:41.621Z,91.48
2019-04-07T10:27:59.169Z,90.46
2019-04-07T10:31:32.878Z,88.28
2019-04-07T10:35:02.517Z,90.14
2019-04-07T10:38:28.805Z,86.16
2019-04-07T10:41:50.720Z,100.00
2019-04-07T10:45:34.886Z,92.28
2019-04-07T10:49:07.687Z,96.96
2019-04-07T10:52:26.147Z,100.00
2019-04-07T10:55:40.564Z,93.03
2019-04-07T10:59:05.804Z,90.87
2019-04-07T11:03:07.454Z,89.59
2019-04-07T11:06:51.734Z,89.05
2019-04-07T11:10:09.787Z,79.70
2019-04-07T11:13:49.017Z,74.83
2019-04-07T11:17:17.305Z,80.51
2019-04-07T11:20:32.855Z,79.05
2019-04-07T11:23:57.730Z,80.92
2019-04-07T11:27:29.499Z,71.93
2019-04-07T11:31:12.200Z,75.04
2019-04-07T11:34:25.307Z,73.40
2019-04-07T11:37:39.355Z,70.97
2019-04-07T11:41:15.635Z,79.64
2019-04-07T11:44:48.774Z,88.29
2019-04-07T11:48:28.182Z,66.58
2019-04-07T11:51:42.461Z,72.34
2019-04-07T11:55:21.651Z,64.96
2019-04-07T11:58:47.814Z,59.48
2019-04-07T12:02:09.146Z,67.70
2019-04-07T12:05:32.219Z,62.44
2019-04-07T12:08:59.023Z,57.54
2019-04-07T12:12:18.619Z,51.82
2019-04-07T12:15:33.465Z,53.99
2019-04-07T12:18:55.568Z,53.57
2019-04-07T12:22:23.878Z,49.94
2019-04-07T12:25:41.677Z,48.18
2019-04-07T12:29:03.592Z,40.88
2019-04-07T12:32:42.081Z,47.78
2019-04-07T12:36:40.900Z,45.53
2019-04-07T12:39:59.959Z,44.40
2019-04-07T12:43:47.377Z,40.47
2019-04-07T12:47:03.754Z,42.67
2019-04-07T12:50:35.646Z,37.47
2019-04-07T12:53:53.658Z,34.98
2019-04-07T12:57:38.303Z,34.98
2019-04-07T13:01:03.733Z,38.38
2019-04-07T13:04:35.343Z,34.34
2019-04-07T13:08:22.630Z,34.01
2019-04-07T13:11:38.616Z,31.70
2019-04-07T13:15:19.561Z,33.90
2019-04-07T13:18:46.510Z,31.74
2019-04-07T13:22:25.121Z,31.49
2019-04-07T13:25:39.654Z,31.34
2019-04-07T13:28:58.939Z,28.98
2019-04-07T13:32:40.907Z,32.47
2019-04-07T13:36:02.166Z,33.91
2019-04-07T13:39:27.526Z,33.00
2019-04-07T13:43:02.935Z,30.99
2019-04-07T13:46:31.783Z,34.37
2019-04-07T13:50:13.778Z,34.98
2019-04-07T13:54:06.920Z,37.94
2019-04-07T13:57:39.353Z,31.11
2019-04-07T14:01:04.466Z,34.76
2019-04-07T14:04:55.778Z,36.95
2019-04-07T14:08:40.519Z,35.56
2019-04-07T14:12:17.245Z,35.43
2019-04-07T14:15:37.014Z,36.37
2019-04-07T14:19:03.943Z,42.85
2019-04-07T14:22:20.920Z,38.02
2019-04-07T14:25:46.013Z,35.44
2019-04-07T14:29:18.502Z,42.69
2019-04-07T14:32:42.871Z,48.45
2019-04-07T14:36:33.392Z,36.47
2019-04-07T14:39:56.720Z,35.21
2019-04-07T14:43:21.335Z,34.28
2019-04-07T14:46:55.789Z,37.04
2019-04-07T14:50:24.438Z,40.92
2019-04-07T14:53:51.314Z,35.66
2019-04-07T14:57:15.556Z,37.43
2019-04-07T15:00:54.720Z,41.81
2019-04-07T15:04:02.286Z,41.56
2019-04-07T15:07:26.500Z,41.99
2019-04-07T15:10:53.556Z,39.76
2019-04-07T15:14:01.859Z,42.84
2019-04-07T15:17:09.762Z,41.06
2019-04-07T15:20:17.534Z,42.65
2019-04-07T15:23:34.160Z,41.06
2019-04-07T15:26:41.460Z,41.44
2019-04-07T15:29:49.234Z,42.19
2019-04-07T15:32:59.509Z,41.64
2019-04-07T15:36:08.896Z,45.38
2019-04-07T15:39:15.071Z,40.85
2019-04-07T15:42:33.050Z,43.86
2019-04-07T15:45:30.881Z,41.78
2019-04-07T15:48:38.807Z,41.96
2019-04-07T15:51:46.202Z,45.60
2019-04-07T15:54:55.327Z,42.95
2019-04-07T15:58:03.104Z,46.12
2019-04-07T16:01:20.519Z,44.91
2019-04-07T16:04:28.651Z,43.75
2019-04-07T16:07:37.406Z,44.36
2019-04-07T16:11:00.670Z,43.84
2019-04-07T16:14:11.803Z,46.40
2019-04-07T16:17:17.275Z,50.57
2019-04-07T16:20:31.321Z,45.71
2019-04-07T16:23:33.645Z,51.70
2019-04-07T16:26:41.004Z,56.86
2019-04-07T16:29:48.320Z,49.83
2019-04-07T16:33:05.630Z,52.13
2019-04-07T16:36:12.916Z,53.14
2019-04-07T16:39:21.083Z,52.03
2019-04-07T16:42:37.875Z,55.52
2019-04-07T16:45:46.281Z,51.01
2019-04-07T16:49:04.472Z,51.42
2019-04-07T16:52:12.398Z,51.63
2019-04-07T16:55:55.682Z,54.53
2019-04-07T16:59:04.143Z,51.59
2019-04-07T17:02:14.403Z,52.99
2019-04-07T17:05:22.032Z,56.28
2019-04-07T17:08:40.272Z,57.08
2019-04-07T17:11:47.631Z,57.95
2019-04-07T17:14:54.888Z,57.95
2019-04-07T17:18:02.489Z,59.41
2019-04-07T17:21:13.970Z,60.60
2019-04-07T17:24:30.540Z,61.70
2019-04-07T17:27:40.905Z,63.15
2019-04-07T17:30:47.576Z,66.21
2019-04-07T17:33:55.203Z,67.66
2019-04-07T17:37:11.823Z,68.34
2019-04-07T17:40:31.952Z,70.64
2019-04-07T17:44:02.447Z,71.26
2019-04-07T17:47:45.987Z,71.86
2019-04-07T17:51:07.338Z,76.00
2019-04-07T17:54:30.395Z,73.71
2019-04-07T17:57:56.431Z,73.61
2019-04-07T18:01:30.377Z,72.92
2019-04-07T18:04:57.078Z,74.50
2019-04-07T18:08:14.770Z,75.45
2019-04-07T18:11:39.285Z,75.56
2019-04-07T18:15:08.878Z,75.05
2019-04-07T18:18:45.270Z,76.03
2019-04-07T18:22:19.835Z,77.40
2019-04-07T18:25:52.179Z,77.16
2019-04-07T18:29:21.175Z,79.70
2019-04-07T18:32:49.301Z,78.52
2019-04-07T18:36:14.296Z,78.54
2019-04-07T18:39:58.067Z,80.73
2019-04-07T18:43:13.888Z,84.63
2019-04-07T18:47:02.704Z,88.82
2019-04-07T18:50:31.581Z,82.52
2019-04-07T18:54:21.422Z,81.02
2019-04-07T18:58:04.083Z,79.96
2019-04-07T19:01:26.495Z,78.59
2019-04-07T19:05:00.170Z,87.44
2019-04-07T19:08:31.934Z,86.29
2019-04-07T19:12:07.567Z,84.47
2019-04-07T19:15:22.195Z,83.07
2019-04-07T19:18:46.802Z,81.25
2019-04-07T19:22:25.973Z,77.39
2019-04-07T19:25:41.966Z,78.16
2019-04-07T19:28:56.037Z,77.32
2019-04-07T19:32:11.597Z,94.72
2019-04-07T19:35:46.251Z,95.87
2019-04-07T19:39:12.525Z,88.46
2019-04-07T19:42:45.874Z,89.97
2019-04-07T19:46:12.929Z,84.41
2019-04-07T19:49:51.294Z,96.38
2019-04-07T19:53:38.755Z,95.79
2019-04-07T19:57:25.758Z,100.00
2019-04-07T20:01:09.122Z,88.36
2019-04-07T20:04:35.296Z,96.46
2019-04-07T20:08:02.564Z,88.35
2019-04-07T20:11:34.176Z,84.98
2019-04-07T20:15:18.046Z,93.30
2019-04-07T20:18:44.161Z,100.00
2019-04-07T20:22:07.399Z,100.00
2019-04-07T20:25:29.640Z,100.00
2019-04-07T20:28:48.758Z,100.00
2019-04-07T20:32:14.127Z,100.00
2019-04-07T20:35:33.553Z,100.00
2019-04-07T20:39:04.053Z,100.00
2019-04-07T20:42:22.424Z,100.00
2019-04-07T20:45:54.179Z,100.00
2019-04-07T20:49:34.238Z,100.00
2019-04-07T20:53:09.966Z,100.00
2019-04-07T20:56:31.903Z,100.00
2019-04-07T21:00:03.712Z,100.00
2019-04-07T21:03:47.640Z,100.00
2019-04-07T21:07:33.491Z,100.00
2019-04-07T21:11:09.127Z,98.32
2019-04-07T21:14:36.104Z,100.00
2019-04-07T21:18:06.575Z,100.00
2019-04-07T21:21:32.429Z,100.00
2019-04-07T21:25:15.617Z,100.00
2019-04-07T21:28:37.461Z,100.00
2019-04-07T21:32:09.615Z,100.00
2019-04-07T21:35:51.255Z,100.00
2019-04-07T21:39:12.929Z,100.00
2019-04-07T21:43:00.943Z,100.00
2019-04-07T21:46:36.735Z,100.00
2019-04-07T21:50:05.380Z,100.00
2019-04-07T21:53:42.136Z,100.00
2019-04-07T21:56:58.175Z,100.00
2019-04-07T22:00:29.125Z,100.00
2019-04-07T22:03:56.951Z,100.00
2019-04-07T22:07:23.956Z,100.00
2019-04-07T22:10:51.411Z,100.00
2019-04-07T22:13:57.516Z,100.00
2019-04-07T22:17:05.378Z,100.00
2019-04-07T22:20:17.665Z,100.00
2019-04-07T22:23:31.812Z,100.00
2019-04-07T22:26:40.597Z,100.00
2019-04-07T22:29:48.974Z,100.00
2019-04-07T22:33:08.168Z,100.00
2019-04-07T22:36:25.712Z,100.00
2019-04-07T22:39:42.428Z,100.00
2019-04-07T22:42:50.044Z,100.00
2019-04-07T22:46:07.118Z,100.00
2019-04-07T22:49:07.146Z,100.00
2019-04-07T22:52:17.602Z,100.00
2019-04-07T22:55:34.291Z,100.00
2019-04-07T22:58:51.998Z,100.00
2019-04-07T23:01:57.752Z,100.00
2019-04-07T23:05:05.142Z,100.00
2019-04-07T23:08:12.498Z,100.00
2019-04-07T23:11:20.432Z,100.00
2019-04-07T23:14:36.779Z,100.00
2019-04-07T23:17:44.224Z,100.00
2019-04-07T23:21:01.140Z,100.00
2019-04-07T23:24:17.611Z,100.00
2019-04-07T23:27:24.847Z,100.00
2019-04-07T23:30:41.668Z,100.00
2019-04-07T23:33:58.671Z,100.00
2019-04-07T23:37:15.228Z,100.00
2019-04-07T23:40:32.240Z,100.00
2019-04-07T23:43:49.367Z,100.00
2019-04-07T23:46:57.174Z,100.00
2019-04-07T23:50:05.057Z,100.00
2019-04-07T23:54:11.299Z,100.00
2019-04-07T23:57:27.991Z,100.00
